Terminal Aerodrome Forecast
Issued by NWS Louisville, KY

Home | Current Version | Previous Version | Text Only | Print | Product List | Glossary On
Versions: 1 2 3 4 5 6 7 8 9 10 11 12 13 14 15 16 17 18 19 20 21 22 23 24
000
FTUS43 KLMK 220523 AAB
TAFBWG
TAF AMD
KBWG 220523Z 2205/2224 VRB03KT 5SM -SHRA BR OVC035
     FM220700 VRB03KT 4SM BR VCSH OVC025
     FM221000 00000KT 3SM BR OVC015
     FM221400 18005KT 6SM BR OVC035
     FM221600 18005KT P6SM BKN045=

USA.gov is the U.S. government's official web portal to all federal, state and local government web resources and services.